Here is the Quick Look data you requested

The Data originates at the National Weather Service, and is made available here by the UAlbany Department of Atmospheric and Environmental Sciences

Surface Observations

KADW 240355Z AUTO 26003KT 10SM CLR 21/19 A2988 RMK AO2 SLP123 T02100193 $=
KADW 240455Z AUTO 00000KT 10SM CLR 21/19 A2987 RMK AO2 SLP120 T02120187
 402830204 $=
KADW 240555Z AUTO 00000KT 10SM CLR 21/19 A2985 RMK AO2 SLP113 T02090190 10244
 20203 58010 $=
KADW 240655Z AUTO 00000KT 10SM CLR 20/19 A2984 RMK AO2 SLP109 T02010191 $=
KADW 240755Z AUTO 00000KT 10SM CLR 20/19 A2984 RMK AO2 SLP109 T01980186 $=
KADW 240855Z AUTO 00000KT 10SM CLR 20/18 A2982 RMK AO2 SLP103 T01960182 56009 $=
KADW 240955Z AUTO 00000KT 10SM CLR 20/19 A2985 RMK AO2 SLP113 T01990185 $=
KADW 241055Z AUTO 00000KT 10SM CLR 20/19 A2986 RMK AO2 SLP116 T02040190 $=
KADW 241155Z AUTO 01005KT 10SM CLR 22/19 A2986 RMK AO2 SLP116 70002 T02230191
 10223 20182 50013 $=
KADW 241255Z AUTO 03003KT 10SM CLR 24/19 A2987 RMK AO2 SLP120 T02380189 $=
KADW 241355Z AUTO 03007KT 10SM SCT170 SCT200 25/18 A2987 RMK AO2 SLP120
 T02520176 $=
KADW 241455Z AUTO 03008KT 10SM FEW160 SCT190 27/17 A2987 RMK AO2 SLP120
 T02670169 50003 $=
KADW 241555Z AUTO 04007KT 10SM FEW170 28/13 A2986 RMK AO2 SLP116 T02750131 $=
KADW 241655Z AUTO 00000KT 10SM FEW110 FEW150 SCT180 SCT210 28/13 A2985 RMK AO2
 SLP113 T02790126 $=
KADW 241755Z AUTO 12007KT 10SM FEW150 FEW180 28/13 A2982 RMK AO2 LTG DSNT S
 SLP102 T02810128 10287 20223 58016 $=
KADW 241855Z AUTO 09006KT 10SM FEW110 SCT140 BKN180 BKN200 28/15 A2983 RMK AO2
 SLP106 T02800146 $=
KADW 241955Z AUTO 09006KT 10SM CLR 28/14 A2982 RMK AO2 SLP103 T02830141 $=
KADW 242055Z AUTO 14006KT 10SM FEW120 FEW200 28/15 A2981 RMK AO2 SLP099
 T02840153 58003 $=
KADW 242155Z AUTO 15004KT 10SM CLR 28/16 A2981 RMK AO2 SLP099 T02770163 $=
KADW 242255Z AUTO 13005KT 10SM CLR 27/18 A2980 RMK AO2 SLP096 T02660176 $=
KADW 242355Z AUTO 18005KT 10SM CLR 24/18 A2980 RMK AO2 SLP096 T02440176 10288
 20244 58002 $=
KADW 250055Z AUTO 00000KT 10SM CLR 24/17 A2982 RMK AO2 SLP103 T02370167 $=
KADW 250155Z AUTO 21003KT 10SM CLR 20/17 A2985 RMK AO2 SLP113 T02040170 $=
KADW 250255Z AUTO 00000KT 10SM CLR 20/17 A2985 RMK AO2 SLP113 T02030169 52017 $=
KADW 250355Z AUTO 19004KT 10SM CLR 20/17 A2985 RMK AO2 SLP113 T01980172 $=
KADW 250455Z AUTO 25006KT 10SM CLR 22/19 A2985 RMK AO2 SLP113 T02160191
 402880180 $=
KADW 250555Z AUTO 26005KT 10SM CLR 21/19 A2984 RMK AO2 SLP109 T02110190 10243
 20180 55005 $=
KADW 250655Z AUTO 00000KT 10SM CLR 20/19 A2982 RMK AO2 SLP103 T02000188 $=
KADW 250735Z AUTO 00000KT 2SM BR CLR 19/18 A2982 RMK AO2 VIS 2V7 SLP103 $=
KADW 250745Z AUTO 00000KT 2SM BR CLR 18/17 A2981 RMK AO2 VIS 1 1/8V2 SLP099 $=
KADW 250755Z AUTO 00000KT 6SM BR CLR 18/18 A2981 RMK AO2 SLP099 T01840176 $=
KADW 250855Z AUTO 00000KT 10SM CLR 18/18 A2983 RMK AO2 SLP106 T01830176 55004 $=
KADW 250955Z AUTO 00000KT 10SM CLR 18/17 A2983 RMK AO2 SLP106 T01790169 $=